createdAt,value
2023-01-07T00:01:21.730Z,99270.19
2023-01-07T00:03:49.975Z,99266.66
2023-01-07T00:06:29.520Z,99260.44
2023-01-07T00:08:57.693Z,99269.66
2023-01-07T00:11:36.360Z,99271.28
2023-01-07T00:14:05.334Z,99263.19
2023-01-07T00:16:33.464Z,99261.59
2023-01-07T00:19:04.384Z,99269.47
2023-01-07T00:21:31.624Z,99259.50
2023-01-07T00:24:01.009Z,99260.56
2023-01-07T00:26:32.614Z,99254.88
2023-01-07T00:29:00.235Z,99245.94
2023-01-07T00:31:32.738Z,99240.22
2023-01-07T00:34:00.049Z,99245.06
2023-01-07T00:36:29.259Z,99237.47
2023-01-07T00:39:13.006Z,99239.66
2023-01-07T00:41:39.897Z,99237.25
2023-01-07T00:44:08.195Z,99233.72
2023-01-07T00:46:35.327Z,99224.22
2023-01-07T00:49:02.226Z,99226.94
2023-01-07T00:51:29.149Z,99224.22
2023-01-07T00:53:56.002Z,99224.22
2023-01-07T00:56:22.848Z,99221.53
2023-01-07T00:58:49.703Z,99217.16
2023-01-07T01:01:16.617Z,99219.31
2023-01-07T01:03:43.625Z,99214.94
2023-01-07T01:06:15.887Z,99217.69
2023-01-07T01:08:44.976Z,99212.00
2023-01-07T01:11:13.979Z,99201.47
2023-01-07T01:13:41.727Z,99206.06
2023-01-07T01:16:11.644Z,99204.97
2023-01-07T01:18:38.999Z,99206.84
2023-01-07T01:21:07.568Z,99202.75
2023-01-07T01:23:35.033Z,99197.66
2023-01-07T01:26:13.663Z,99203.63
2023-01-07T01:28:40.699Z,99191.16
2023-01-07T01:31:09.149Z,99200.09
2023-01-07T01:33:36.180Z,99199.81
2023-01-07T01:36:05.703Z,99198.78
2023-01-07T01:38:32.624Z,99200.94
2023-01-07T01:40:59.686Z,99203.88
2023-01-07T01:43:31.458Z,99199.28
2023-01-07T01:46:02.383Z,99199.28
2023-01-07T01:48:34.260Z,99195.19
2023-01-07T01:51:03.250Z,99200.63
2023-01-07T01:53:34.232Z,99194.69
2023-01-07T01:56:11.812Z,99195.50
2023-01-07T01:58:57.095Z,99194.97
2023-01-07T02:01:23.969Z,99185.50
2023-01-07T02:03:52.450Z,99185.22
2023-01-07T02:06:24.645Z,99185.50
2023-01-07T02:08:51.679Z,99188.47
2023-01-07T02:11:30.575Z,99189.56
2023-01-07T02:14:04.377Z,99180.91
2023-01-07T02:17:25.074Z,99186.31
2023-01-07T02:20:28.968Z,99180.91
2023-01-07T02:23:09.942Z,99177.16
2023-01-07T02:26:01.491Z,99173.63
2023-01-07T02:28:43.431Z,99179.03
2023-01-07T02:31:22.497Z,99173.34
2023-01-07T02:33:49.230Z,99167.94
2023-01-07T02:36:37.533Z,99164.69
2023-01-07T02:39:19.798Z,99160.13
2023-01-07T02:42:04.171Z,99156.88
2023-01-07T02:44:57.655Z,99149.03
2023-01-07T02:47:32.685Z,99148.19
2023-01-07T02:49:59.499Z,99141.44
2023-01-07T02:52:31.193Z,99139.81
2023-01-07T02:55:04.352Z,99134.44
2023-01-07T02:58:05.305Z,99130.66
2023-01-07T03:00:54.067Z,99123.91
2023-01-07T03:03:48.089Z,99136.06
2023-01-07T03:06:23.963Z,99122.00
2023-01-07T03:09:37.894Z,99126.38
2023-01-07T03:12:45.065Z,99119.84
2023-01-07T03:15:19.859Z,99119.28
2023-01-07T03:17:59.677Z,99117.13
2023-01-07T03:20:27.820Z,99113.88
2023-01-07T03:22:57.692Z,99111.47
2023-01-07T03:25:28.356Z,99110.66
2023-01-07T03:27:57.218Z,99105.75
2023-01-07T03:30:25.146Z,99101.44
2023-01-07T03:33:02.620Z,99099.50
2023-01-07T03:35:32.201Z,99098.22
2023-01-07T03:38:02.013Z,99100.38
2023-01-07T03:40:29.386Z,99091.19
2023-01-07T03:42:56.176Z,99093.34
2023-01-07T03:45:24.580Z,99084.44
2023-01-07T03:47:55.845Z,99084.16
2023-01-07T03:50:22.986Z,99089.84
2023-01-07T03:52:50.933Z,99082.56
2023-01-07T03:55:18.301Z,99081.78
2023-01-07T03:57:45.072Z,99078.50
2023-01-07T04:00:13.861Z,99079.88
2023-01-07T04:02:41.894Z,99078.78
2023-01-07T04:05:09.623Z,99072.31
2023-01-07T04:07:36.558Z,99066.34
2023-01-07T04:10:04.907Z,99066.06
2023-01-07T04:12:31.766Z,99069.56
2023-01-07T04:14:59.435Z,99076.31
2023-01-07T04:17:26.248Z,99064.44
2023-01-07T04:19:53.085Z,99064.50
2023-01-07T04:22:20.534Z,99064.19
2023-01-07T04:24:47.307Z,99061.78
2023-01-07T04:27:14.031Z,99064.50
2023-01-07T04:29:40.843Z,99059.88
2023-01-07T04:32:07.535Z,99053.91
2023-01-07T04:34:34.271Z,99048.22
2023-01-07T04:37:01.129Z,99046.03
2023-01-07T04:39:27.944Z,99046.81
2023-01-07T04:41:54.782Z,99042.50
2023-01-07T04:44:21.705Z,99036.34
2023-01-07T04:46:48.589Z,99043.13
2023-01-07T04:49:15.324Z,99038.75
2023-01-07T04:51:42.321Z,99038.75
2023-01-07T04:54:09.032Z,99028.75
2023-01-07T04:56:35.754Z,99025.75
2023-01-07T04:59:02.581Z,99040.63
2023-01-07T05:01:33.171Z,99024.59
2023-01-07T05:04:00.273Z,99028.34
2023-01-07T05:06:27.027Z,99023.97
2023-01-07T05:08:54.058Z,99026.09
2023-01-07T05:11:21.877Z,99025.00
2023-01-07T05:13:49.747Z,99021.25
2023-01-07T05:16:17.845Z,99021.53
2023-01-07T05:18:45.029Z,99021.25
2023-01-07T05:21:12.355Z,99016.38
2023-01-07T05:23:39.192Z,99014.19
2023-01-07T05:26:06.366Z,99011.44
2023-01-07T05:28:33.390Z,99011.44
2023-01-07T05:31:00.540Z,99002.22
2023-01-07T05:33:27.575Z,99003.81
2023-01-07T05:35:54.458Z,99008.47
2023-01-07T05:38:21.345Z,99002.31
2023-01-07T05:40:49.930Z,99002.63
2023-01-07T05:43:17.090Z,99000.78
2023-01-07T05:45:45.604Z,99007.28
2023-01-07T05:48:13.333Z,98988.63
2023-01-07T05:50:40.108Z,98991.34
2023-01-07T05:53:07.461Z,98986.19
2023-01-07T05:55:36.970Z,98987.06
2023-01-07T05:58:03.936Z,98981.13
2023-01-07T06:00:30.941Z,98983.31
2023-01-07T06:02:57.738Z,98976.00
2023-01-07T06:05:24.470Z,98979.22
2023-01-07T06:07:51.598Z,98969.47
2023-01-07T06:10:18.382Z,98969.22
2023-01-07T06:12:45.184Z,98962.97
2023-01-07T06:15:11.931Z,98967.31
2023-01-07T06:17:38.607Z,98966.50
2023-01-07T06:20:06.145Z,98963.28
2023-01-07T06:22:32.833Z,98955.97
2023-01-07T06:24:59.692Z,98958.66
2023-01-07T06:27:26.437Z,98958.97
2023-01-07T06:29:53.127Z,98961.94
2023-01-07T06:32:19.864Z,98958.44
2023-01-07T06:34:46.716Z,98963.28
2023-01-07T06:37:14.852Z,98960.56
2023-01-07T06:39:41.625Z,98958.13
2023-01-07T06:42:08.307Z,98955.75
2023-01-07T06:44:34.967Z,98947.38
2023-01-07T06:47:01.987Z,98947.94
2023-01-07T06:49:28.877Z,98943.63
2023-01-07T06:51:55.557Z,98939.88
2023-01-07T06:54:22.239Z,98944.75
2023-01-07T06:56:48.922Z,98936.38
2023-01-07T06:59:15.613Z,98937.41
2023-01-07T07:01:43.952Z,98939.03
2023-01-07T07:04:11.791Z,98932.28
2023-01-07T07:06:38.498Z,98929.00
2023-01-07T07:09:05.239Z,98933.84
2023-01-07T07:11:32.019Z,98928.69
2023-01-07T07:13:59.835Z,98933.50
2023-01-07T07:16:26.703Z,98930.25
2023-01-07T07:18:53.742Z,98929.66
2023-01-07T07:21:20.629Z,98927.19
2023-01-07T07:23:47.673Z,98924.78
2023-01-07T07:26:14.386Z,98929.16
2023-01-07T07:28:44.123Z,98925.97
2023-01-07T07:31:11.081Z,98926.03
2023-01-07T07:33:37.875Z,98925.72
2023-01-07T07:36:05.122Z,98925.72
2023-01-07T07:38:31.962Z,98928.16
2023-01-07T07:40:58.748Z,98920.84
2023-01-07T07:43:25.513Z,98919.22
2023-01-07T07:45:52.245Z,98917.91
2023-01-07T07:48:19.044Z,98913.81
2023-01-07T07:50:51.057Z,98914.31
2023-01-07T07:53:18.572Z,98910.53
2023-01-07T07:55:46.323Z,98917.56
2023-01-07T07:58:13.759Z,98908.97
2023-01-07T08:00:40.603Z,98909.53
2023-01-07T08:03:07.658Z,98906.25
2023-01-07T08:05:34.438Z,98903.56
2023-01-07T08:08:01.538Z,98897.56
2023-01-07T08:10:29.174Z,98896.78
2023-01-07T08:12:56.108Z,98889.25
2023-01-07T08:15:23.002Z,98886.22
2023-01-07T08:18:00.354Z,98885.13
2023-01-07T08:20:28.404Z,98880.81
2023-01-07T08:22:57.707Z,98876.22
2023-01-07T08:25:24.552Z,98881.91
2023-01-07T08:27:51.460Z,98882.16
2023-01-07T08:30:18.556Z,98880.56
2023-01-07T08:32:45.410Z,98887.78
2023-01-07T08:35:12.814Z,98878.88
2023-01-07T08:37:39.893Z,98884.88
2023-01-07T08:40:07.425Z,98884.88
2023-01-07T08:42:34.267Z,98884.28
2023-01-07T08:45:01.150Z,98881.00
2023-01-07T08:47:28.597Z,98881.81
2023-01-07T08:49:55.666Z,98881.28
2023-01-07T08:52:26.450Z,98888.31
2023-01-07T08:54:53.273Z,98885.03
2023-01-07T08:57:20.260Z,98885.28
2023-01-07T08:59:47.020Z,98886.59
2023-01-07T09:02:19.069Z,98884.91
2023-01-07T09:04:46.043Z,98875.69
2023-01-07T09:07:12.997Z,98881.09
2023-01-07T09:09:40.235Z,98877.88
2023-01-07T09:12:10.648Z,98875.69
2023-01-07T09:14:37.962Z,98872.72
2023-01-07T09:17:04.865Z,98863.78
2023-01-07T09:19:31.743Z,98868.16
2023-01-07T09:21:58.481Z,98861.38
2023-01-07T09:24:25.262Z,98854.34
2023-01-07T09:26:52.565Z,98850.50
2023-01-07T09:29:19.483Z,98846.94
2023-01-07T09:31:46.316Z,98850.72
2023-01-07T09:34:13.564Z,98837.19
2023-01-07T09:36:40.297Z,98844.72
2023-01-07T09:39:07.187Z,98842.53
2023-01-07T09:42:04.572Z,98837.84
2023-01-07T09:44:44.882Z,98839.97
2023-01-07T09:47:14.748Z,98841.59
2023-01-07T09:49:44.106Z,98841.59
2023-01-07T09:52:19.388Z,98835.81
2023-01-07T09:54:48.462Z,98823.31
2023-01-07T09:57:17.817Z,98823.00
2023-01-07T09:59:45.793Z,98816.50
2023-01-07T10:02:49.206Z,98824.84
2023-01-07T10:05:43.696Z,98814.53
2023-01-07T10:08:32.208Z,98815.84
2023-01-07T10:11:12.440Z,98807.13
2023-01-07T10:13:59.554Z,98800.03
2023-01-07T10:17:00.670Z,98805.38
2023-01-07T10:19:39.920Z,98806.19
2023-01-07T10:22:30.804Z,98802.06
2023-01-07T10:25:04.490Z,98803.09
2023-01-07T10:27:40.271Z,98793.50
2023-01-07T10:30:15.209Z,98794.84
2023-01-07T10:32:42.031Z,98784.75
2023-01-07T10:35:17.424Z,98781.34
2023-01-07T10:37:44.402Z,98775.44
2023-01-07T10:40:33.135Z,98756.63
2023-01-07T10:43:21.371Z,98758.41
2023-01-07T10:45:58.305Z,98753.50
2023-01-07T10:48:46.878Z,98757.03
2023-01-07T10:51:44.956Z,98748.19
2023-01-07T10:54:17.567Z,98744.19
2023-01-07T10:56:58.001Z,98732.91
2023-01-07T10:59:25.574Z,98731.94
2023-01-07T11:01:54.838Z,98723.00
2023-01-07T11:04:22.308Z,98715.84
2023-01-07T11:07:04.195Z,98715.44
2023-01-07T11:09:35.334Z,98711.44
2023-01-07T11:12:14.921Z,98705.94
2023-01-07T11:14:43.186Z,98698.22
2023-01-07T11:17:32.398Z,98694.00
2023-01-07T11:19:59.321Z,98691.78
2023-01-07T11:22:26.073Z,98682.03
2023-01-07T11:24:57.856Z,98678.59
2023-01-07T11:27:27.903Z,98678.59
2023-01-07T11:30:02.431Z,98672.69
2023-01-07T11:32:35.518Z,98657.38
2023-01-07T11:35:06.976Z,98650.13
2023-01-07T11:37:44.692Z,98651.09
2023-01-07T11:40:14.656Z,98651.47
2023-01-07T11:42:48.803Z,98644.53
2023-01-07T11:45:20.945Z,98634.31
2023-01-07T11:48:29.220Z,98626.03
2023-01-07T11:51:12.845Z,98618.59
2023-01-07T11:53:59.967Z,98614.91
2023-01-07T11:56:33.051Z,98606.63
2023-01-07T11:59:12.151Z,98601.56
2023-01-07T12:01:49.170Z,98598.72
2023-01-07T12:04:32.279Z,98584.69
2023-01-07T12:07:04.108Z,98579.41
2023-01-07T12:09:37.043Z,98575.78
2023-01-07T12:12:34.990Z,98565.47
2023-01-07T12:15:06.361Z,98568.22
2023-01-07T12:17:35.225Z,98549.84
2023-01-07T12:20:14.399Z,98548.41
2023-01-07T12:23:15.425Z,98545.84
2023-01-07T12:26:08.814Z,98543.59
2023-01-07T12:28:47.825Z,98535.94
2023-01-07T12:31:30.071Z,98529.22
2023-01-07T12:33:56.798Z,98525.88
2023-01-07T12:36:47.531Z,98530.50
2023-01-07T12:39:23.641Z,98520.91
2023-01-07T12:42:03.649Z,98517.06
2023-01-07T12:44:31.185Z,98512.59
2023-01-07T12:47:31.618Z,98512.41
2023-01-07T12:50:24.557Z,98511.94
2023-01-07T12:52:57.539Z,98504.09
2023-01-07T12:55:31.713Z,98507.63
2023-01-07T12:57:58.474Z,98501.69
2023-01-07T13:00:28.817Z,98492.09
2023-01-07T13:03:01.718Z,98490.00
2023-01-07T13:05:43.971Z,98486.66
2023-01-07T13:08:40.894Z,98481.84
2023-01-07T13:11:53.116Z,98478.16
2023-01-07T13:14:25.268Z,98466.81
2023-01-07T13:16:52.075Z,98463.28
2023-01-07T13:19:21.664Z,98467.75
2023-01-07T13:21:50.046Z,98472.41
2023-01-07T13:24:56.357Z,98473.94
2023-01-07T13:28:00.275Z,98468.84
2023-01-07T13:30:46.347Z,98469.34
2023-01-07T13:33:46.867Z,98456.03
2023-01-07T13:36:27.768Z,98443.44
2023-01-07T13:39:21.372Z,98442.16
2023-01-07T13:42:21.900Z,98444.19
2023-01-07T13:45:02.586Z,98443.91
2023-01-07T13:47:41.543Z,98442.28
2023-01-07T13:50:37.379Z,98441.81
2023-01-07T13:53:12.318Z,98439.56
2023-01-07T13:55:44.752Z,98438.75
2023-01-07T13:58:30.479Z,98440.19
2023-01-07T14:01:11.689Z,98443.22
2023-01-07T14:04:18.019Z,98450.91
2023-01-07T14:06:48.291Z,98446.72
2023-01-07T14:09:24.859Z,98446.25
2023-01-07T14:12:44.095Z,98446.09
2023-01-07T14:15:26.814Z,98443.69
2023-01-07T14:18:13.164Z,98438.41
2023-01-07T14:20:51.933Z,98448.28
2023-01-07T14:23:30.184Z,98443.03
2023-01-07T14:26:37.623Z,98448.28
2023-01-07T14:29:45.496Z,98452.75
2023-01-07T14:32:32.016Z,98456.09
2023-01-07T14:35:08.033Z,98456.59
2023-01-07T14:37:46.821Z,98449.84
2023-01-07T14:40:54.509Z,98446.59
2023-01-07T14:43:46.181Z,98442.25
2023-01-07T14:46:28.107Z,98451.44
2023-01-07T14:49:24.769Z,98451.72
2023-01-07T14:52:13.473Z,98443.69
2023-01-07T14:55:08.531Z,98440.31
2023-01-07T14:57:56.057Z,98449.19
2023-01-07T15:00:38.730Z,98440.56
2023-01-07T15:03:16.399Z,98445.63
2023-01-07T15:06:28.319Z,98437.13
2023-01-07T15:09:37.928Z,98451.31
2023-01-07T15:12:30.438Z,98439.59
2023-01-07T15:15:32.934Z,98439.66
2023-01-07T15:17:59.729Z,98434.63
2023-01-07T15:20:38.720Z,98434.06
2023-01-07T15:23:19.076Z,98424.59
2023-01-07T15:26:28.960Z,98417.06
2023-01-07T15:29:04.833Z,98416.88
2023-01-07T15:31:59.100Z,98421.31
2023-01-07T15:34:30.893Z,98423.31
2023-01-07T15:36:58.830Z,98418.53
2023-01-07T15:39:33.582Z,98415.63
2023-01-07T15:42:01.160Z,98421.66
2023-01-07T15:44:40.722Z,98421.56
2023-01-07T15:47:41.419Z,98432.03
2023-01-07T15:50:30.938Z,98419.91
2023-01-07T15:53:10.045Z,98425.22
2023-01-07T15:55:40.369Z,98427.44
2023-01-07T15:58:13.331Z,98424.44
2023-01-07T16:00:40.822Z,98420.56
2023-01-07T16:03:08.303Z,98418.56
2023-01-07T16:05:38.336Z,98417.84
2023-01-07T16:08:05.288Z,98419.25
2023-01-07T16:10:35.427Z,98422.94
2023-01-07T16:13:05.328Z,98419.53
2023-01-07T16:15:38.436Z,98422.03
2023-01-07T16:18:18.989Z,98414.63
2023-01-07T16:21:02.469Z,98417.59
2023-01-07T16:23:32.807Z,98408.28
2023-01-07T16:26:18.530Z,98409.41
2023-01-07T16:28:59.494Z,98407.13
2023-01-07T16:31:31.180Z,98408.84
2023-01-07T16:34:00.083Z,98398.69
2023-01-07T16:36:36.343Z,98395.19
2023-01-07T16:39:15.868Z,98397.41
2023-01-07T16:41:43.348Z,98395.59
2023-01-07T16:44:49.494Z,98402.59
2023-01-07T16:47:22.225Z,98393.69
2023-01-07T16:49:55.248Z,98403.53
2023-01-07T16:52:31.819Z,98402.41
2023-01-07T16:54:59.274Z,98395.09
2023-01-07T16:57:33.826Z,98398.59
2023-01-07T17:00:03.931Z,98397.59
2023-01-07T17:02:43.117Z,98395.50
2023-01-07T17:05:17.002Z,98393.97
2023-01-07T17:08:36.731Z,98383.75
2023-01-07T17:11:09.333Z,98378.94
2023-01-07T17:13:39.162Z,98374.44
2023-01-07T17:16:16.732Z,98375.72
2023-01-07T17:18:43.577Z,98374.13
2023-01-07T17:21:30.292Z,98376.22
2023-01-07T17:23:58.105Z,98375.53
2023-01-07T17:26:27.472Z,98367.72
2023-01-07T17:28:57.260Z,98375.53
2023-01-07T17:31:24.677Z,98365.69
2023-01-07T17:33:53.411Z,98366.31
2023-01-07T17:36:23.089Z,98369.31
2023-01-07T17:38:50.493Z,98354.78
2023-01-07T17:41:39.266Z,98353.97
2023-01-07T17:44:11.398Z,98361.31
2023-01-07T17:46:42.062Z,98360.78
2023-01-07T17:49:11.376Z,98357.88
2023-01-07T17:51:47.485Z,98367.09
2023-01-07T17:54:25.361Z,98350.56
2023-01-07T17:56:52.700Z,98361.09
2023-01-07T17:59:22.433Z,98352.97
2023-01-07T18:01:52.107Z,98356.00
2023-01-07T18:04:19.534Z,98351.69
2023-01-07T18:06:46.542Z,98352.78
2023-01-07T18:09:13.791Z,98352.28
2023-01-07T18:12:02.917Z,98347.97
2023-01-07T18:14:32.247Z,98352.88
2023-01-07T18:16:59.519Z,98351.03
2023-01-07T18:19:26.278Z,98339.44
2023-01-07T18:21:53.107Z,98344.84
2023-01-07T18:24:21.322Z,98336.75
2023-01-07T18:26:48.452Z,98338.34
2023-01-07T18:29:15.307Z,98333.72
2023-01-07T18:31:44.451Z,98345.13
2023-01-07T18:34:13.848Z,98341.34
2023-01-07T18:36:41.162Z,98348.25
2023-01-07T18:39:11.771Z,98345.84
2023-01-07T18:41:39.583Z,98354.25
2023-01-07T18:44:06.479Z,98351.28
2023-01-07T18:46:33.821Z,98349.56
2023-01-07T18:49:02.074Z,98347.66
2023-01-07T18:51:29.081Z,98349.84
2023-01-07T18:54:01.095Z,98347.66
2023-01-07T18:56:28.124Z,98349.25
2023-01-07T18:58:55.316Z,98349.84
2023-01-07T19:01:22.169Z,98340.66
2023-01-07T19:03:49.307Z,98339.84
2023-01-07T19:06:16.410Z,98342.84
2023-01-07T19:08:43.273Z,98334.72
2023-01-07T19:11:13.039Z,98334.13
2023-01-07T19:13:40.094Z,98336.06
2023-01-07T19:16:12.736Z,98328.53
2023-01-07T19:18:40.087Z,98335.53
2023-01-07T19:21:10.478Z,98331.25
2023-01-07T19:23:37.400Z,98342.25
2023-01-07T19:26:06.496Z,98337.94
2023-01-07T19:28:33.544Z,98343.34
2023-01-07T19:31:04.579Z,98340.97
2023-01-07T19:33:31.722Z,98336.34
2023-01-07T19:36:10.148Z,98332.03
2023-01-07T19:38:44.454Z,98334.72
2023-01-07T19:41:16.538Z,98330.13
2023-01-07T19:43:45.719Z,98318.00
2023-01-07T19:46:15.449Z,98313.69
2023-01-07T19:48:42.895Z,98315.63
2023-01-07T19:51:10.596Z,98317.72
2023-01-07T19:53:37.832Z,98310.09
2023-01-07T19:56:09.346Z,98317.13
2023-01-07T19:58:40.606Z,98319.59
2023-01-07T20:01:17.803Z,98309.59
2023-01-07T20:03:45.525Z,98315.81
2023-01-07T20:06:18.319Z,98306.59
2023-01-07T20:08:45.378Z,98305.47
2023-01-07T20:11:13.382Z,98295.78
2023-01-07T20:13:41.379Z,98298.19
2023-01-07T20:16:13.463Z,98292.97
2023-01-07T20:18:43.347Z,98282.16
2023-01-07T20:21:12.385Z,98281.03
2023-01-07T20:23:40.738Z,98272.94
2023-01-07T20:26:15.507Z,98279.53
2023-01-07T20:28:42.453Z,98270.31
2023-01-07T20:31:13.012Z,98272.84
2023-01-07T20:33:40.293Z,98279.13
2023-01-07T20:36:10.497Z,98277.34
2023-01-07T20:38:37.727Z,98281.44
2023-01-07T20:41:05.659Z,98281.94
2023-01-07T20:43:34.009Z,98283.66
2023-01-07T20:46:02.656Z,98294.47
2023-01-07T20:48:30.103Z,98289.38
2023-01-07T20:50:57.433Z,98286.66
2023-01-07T20:53:28.437Z,98288.03
2023-01-07T20:55:59.719Z,98288.13
2023-01-07T20:58:28.059Z,98283.34
2023-01-07T21:00:54.971Z,98280.69
2023-01-07T21:03:22.058Z,98278.88
2023-01-07T21:05:51.247Z,98272.44
2023-01-07T21:08:18.100Z,98265.44
2023-01-07T21:10:44.926Z,98274.88
2023-01-07T21:13:11.749Z,98266.78
2023-01-07T21:15:41.467Z,98274.88
2023-01-07T21:18:08.227Z,98276.25
2023-01-07T21:20:35.014Z,98277.06
2023-01-07T21:23:03.452Z,98275.47
2023-01-07T21:25:30.434Z,98273.97
2023-01-07T21:27:58.220Z,98267.22
2023-01-07T21:30:28.263Z,98263.75
2023-01-07T21:32:56.086Z,98270.25
2023-01-07T21:35:23.476Z,98275.16
2023-01-07T21:37:56.945Z,98274.56
2023-01-07T21:40:23.961Z,98284.75
2023-01-07T21:42:50.882Z,98265.44
2023-01-07T21:45:18.596Z,98276.25
2023-01-07T21:47:46.413Z,98274.31
2023-01-07T21:50:15.020Z,98269.25
2023-01-07T21:52:42.006Z,98280.25
2023-01-07T21:55:10.409Z,98269.16
2023-01-07T21:57:38.878Z,98264.84
2023-01-07T22:00:06.939Z,98262.13
2023-01-07T22:02:33.753Z,98261.84
2023-01-07T22:05:00.681Z,98265.34
2023-01-07T22:07:27.390Z,98252.44
2023-01-07T22:09:54.414Z,98254.63
2023-01-07T22:12:21.347Z,98251.13
2023-01-07T22:14:48.170Z,98259.22
2023-01-07T22:17:15.066Z,98261.63
2023-01-07T22:19:42.215Z,98262.41
2023-01-07T22:22:09.038Z,98264.34
2023-01-07T22:24:35.870Z,98267.22
2023-01-07T22:27:02.800Z,98273.88
2023-01-07T22:29:32.257Z,98266.25
2023-01-07T22:31:59.310Z,98267.06
2023-01-07T22:34:26.119Z,98258.25
2023-01-07T22:37:10.303Z,98262.66
2023-01-07T22:39:51.833Z,98257.25
2023-01-07T22:42:22.674Z,98263.34
2023-01-07T22:44:54.513Z,98263.84
2023-01-07T22:47:26.416Z,98252.25
2023-01-07T22:49:54.032Z,98245.25
2023-01-07T22:52:21.308Z,98250.06
2023-01-07T22:54:48.306Z,98249.44
2023-01-07T22:57:15.363Z,98247.53
2023-01-07T22:59:42.135Z,98245.66
2023-01-07T23:02:08.917Z,98233.75
2023-01-07T23:04:35.654Z,98231.31
2023-01-07T23:07:02.658Z,98235.44
2023-01-07T23:09:29.440Z,98228.22
2023-01-07T23:11:59.513Z,98224.72
2023-01-07T23:14:28.902Z,98226.41
2023-01-07T23:16:56.250Z,98221.72
2023-01-07T23:19:22.992Z,98220.69
2023-01-07T23:21:52.724Z,98217.41
2023-01-07T23:24:20.703Z,98214.09
2023-01-07T23:26:52.772Z,98206.59
2023-01-07T23:29:19.947Z,98207.38
2023-01-07T23:31:46.913Z,98199.78
2023-01-07T23:34:14.317Z,98205.00
2023-01-07T23:36:41.050Z,98204.19
2023-01-07T23:39:07.841Z,98209.59
2023-01-07T23:41:34.612Z,98202.88
2023-01-07T23:44:01.637Z,98203.56
2023-01-07T23:46:28.425Z,98204.53
2023-01-07T23:48:55.195Z,98194.63
2023-01-07T23:51:22.206Z,98178.94
2023-01-07T23:53:49.540Z,98181.34
2023-01-07T23:56:22.555Z,98187.97
2023-01-07T23:58:49.911Z,98177.56
